Time;durP1;ratioP1;P1;durP2;ratioP2;P2;SDS_P1;SDS_P2;PMS_P1;PMS_P2;Temp;Humidity;BMP_temperature;BMP_pressure;BME280_temperature;BME280_humidity;BME280_pressure;Samples;Min_cycle;Max_cycle;Signal;HPM_P1;HPM_P2
2022/08/04 00:00:12;;;;;;;12.20;11.50;;;22.10;99.90;;;;;;5045283;28;20483;-68
2022/08/04 00:02:51;;;;;;;12.40;11.43;;;22.10;99.90;;;;;;5034785;28;20487;-67
2022/08/04 00:05:29;;;;;;;11.97;11.07;;;22.10;99.90;;;;;;5041125;28;20500;-66
2022/08/04 00:08:04;;;;;;;10.97;10.37;;;22.10;99.90;;;;;;5043503;28;20456;-68
2022/08/04 00:10:34;;;;;;;11.70;11.10;;;22.00;99.90;;;;;;5043963;28;20459;-67
2022/08/04 00:13:07;;;;;;;11.57;10.60;;;21.90;99.90;;;;;;5040967;28;20460;-68
2022/08/04 00:15:34;;;;;;;12.17;11.20;;;21.90;99.90;;;;;;5046893;28;20882;-67
2022/08/04 00:18:07;;;;;;;12.20;11.20;;;21.90;99.90;;;;;;5042133;28;20460;-68
2022/08/04 00:20:39;;;;;;;12.13;11.10;;;21.90;99.90;;;;;;5038106;28;20566;-68
2022/08/04 00:23:07;;;;;;;13.57;12.37;;;21.80;99.90;;;;;;5043119;28;20458;-68
2022/08/04 00:25:38;;;;;;;12.87;11.57;;;21.90;99.90;;;;;;5039816;28;20491;-68
2022/08/04 00:28:07;;;;;;;12.40;11.30;;;21.90;99.90;;;;;;5044850;28;20805;-68
2022/08/04 00:30:34;;;;;;;12.30;11.30;;;21.90;99.90;;;;;;5043982;28;20908;-67
2022/08/04 00:33:02;;;;;;;12.17;11.10;;;21.90;99.90;;;;;;5035343;28;20464;-67
2022/08/04 00:35:30;;;;;;;11.50;10.80;;;21.70;99.90;;;;;;5038176;28;20908;-67
2022/08/04 00:37:58;;;;;;;12.00;11.13;;;21.70;99.90;;;;;;5038956;28;20475;-67
2022/08/04 00:40:36;;;;;;;11.77;10.67;;;21.60;99.90;;;;;;5035364;28;20611;-67
2022/08/04 00:43:16;;;;;;;11.70;10.60;;;21.40;99.90;;;;;;5042293;28;20946;-67
2022/08/04 00:46:10;;;;;;;11.87;11.00;;;21.30;99.90;;;;;;5043333;28;20947;-68
2022/08/04 00:48:56;;;;;;;16.00;10.83;;;21.20;99.90;;;;;;5037713;28;20455;-68
2022/08/04 00:51:30;;;;;;;14.03;10.80;;;21.20;99.90;;;;;;5040644;28;20468;-67
2022/08/04 00:54:06;;;;;;;11.63;10.73;;;21.20;99.90;;;;;;5043850;28;20813;-68
2022/08/04 00:56:51;;;;;;;13.17;11.20;;;21.10;99.90;;;;;;5040795;28;20460;-67
2022/08/04 00:59:34;;;;;;;12.07;11.10;;;21.00;99.90;;;;;;5043222;28;20485;-67
2022/08/04 01:02:11;;;;;;;12.07;10.50;;;21.10;99.90;;;;;;5039695;28;21034;-68
2022/08/04 01:04:48;;;;;;;10.97;10.23;;;21.10;99.90;;;;;;5040586;28;20475;-67
2022/08/04 01:07:40;;;;;;;12.23;11.27;;;21.00;99.90;;;;;;5047310;28;20476;-68
2022/08/04 01:10:12;;;;;;;12.57;11.17;;;21.00;99.90;;;;;;5047820;28;20449;-67
2022/08/04 01:12:56;;;;;;;12.17;11.13;;;20.90;99.90;;;;;;5038508;28;20474;-68
2022/08/04 01:15:37;;;;;;;16.80;11.47;;;20.80;99.90;;;;;;5041136;28;20495;-67
2022/08/04 01:18:07;;;;;;;15.30;11.00;;;20.80;99.90;;;;;;5037632;28;20526;-67
2022/08/04 01:20:47;;;;;;;12.53;10.93;;;20.80;99.90;;;;;;5040767;28;20468;-67
2022/08/04 01:23:49;;;;;;;11.53;10.70;;;20.80;99.90;;;;;;5040292;28;20460;-67
2022/08/04 01:26:46;;;;;;;11.67;10.87;;;20.70;99.90;;;;;;5038593;28;20491;-67
2022/08/04 01:29:17;;;;;;;11.23;10.33;;;20.70;99.90;;;;;;5035290;28;20471;-67
2022/08/04 01:31:55;;;;;;;11.23;10.43;;;20.70;99.90;;;;;;5033292;28;20939;-67
2022/08/04 01:34:42;;;;;;;16.30;11.00;;;20.70;99.90;;;;;;5043353;28;20472;-68
2022/08/04 01:37:17;;;;;;;11.83;10.83;;;20.70;99.90;;;;;;5038320;28;20477;-67
2022/08/04 01:39:51;;;;;;;11.50;10.70;;;20.70;99.90;;;;;;5041575;28;20478;-67
2022/08/04 01:42:21;;;;;;;12.13;10.90;;;20.70;99.90;;;;;;5040069;28;20464;-67
2022/08/04 01:44:51;;;;;;;12.83;10.40;;;20.70;99.90;;;;;;5034980;28;20484;-68
2022/08/04 01:47:21;;;;;;;11.27;10.47;;;20.70;99.90;;;;;;5040897;28;20488;-68
2022/08/04 01:49:50;;;;;;;11.20;10.30;;;20.80;99.90;;;;;;5044002;28;20468;-67
2022/08/04 01:52:19;;;;;;;11.53;10.23;;;20.70;99.90;;;;;;5044781;28;20535;-68
2022/08/04 01:54:47;;;;;;;14.30;10.60;;;20.70;99.90;;;;;;5041715;28;20997;-68
2022/08/04 01:57:19;;;;;;;13.63;11.00;;;20.70;99.90;;;;;;5043042;28;20529;-67
2022/08/04 01:59:52;;;;;;;11.37;10.50;;;20.70;99.90;;;;;;5037000;28;20807;-67
2022/08/04 02:02:23;;;;;;;11.23;10.53;;;20.60;99.90;;;;;;5040841;28;20552;-66
2022/08/04 02:04:51;;;;;;;11.23;10.43;;;20.60;99.90;;;;;;5038359;28;20461;-67
2022/08/04 02:07:37;;;;;;;11.57;10.47;;;20.60;99.90;;;;;;5036731;28;20523;-67
2022/08/04 02:10:07;;;;;;;21.10;11.00;;;20.50;99.90;;;;;;5052312;28;20456;-67
2022/08/04 02:12:48;;;;;;;12.37;11.20;;;20.50;99.90;;;;;;5041811;28;20462;-67
2022/08/04 02:15:26;;;;;;;11.10;10.30;;;20.40;99.90;;;;;;5037049;28;20488;-67
2022/08/04 02:18:01;;;;;;;11.20;10.50;;;20.30;99.90;;;;;;5039332;28;20541;-67
2022/08/04 02:20:32;;;;;;;11.20;10.50;;;20.10;99.90;;;;;;5035884;28;20534;-67
2022/08/04 02:23:01;;;;;;;12.40;11.40;;;20.00;99.90;;;;;;5043500;28;20515;-68
2022/08/04 02:25:32;;;;;;;12.63;11.50;;;20.10;99.90;;;;;;5039880;28;20488;-67
2022/08/04 02:28:22;;;;;;;12.37;11.10;;;20.00;99.90;;;;;;5040018;28;20842;-68
2022/08/04 02:31:03;;;;;;;10.83;10.20;;;20.00;99.90;;;;;;5040842;28;20471;-67
2022/08/04 02:33:37;;;;;;;11.27;10.10;;;19.90;99.90;;;;;;5039281;28;20460;-67
2022/08/04 02:36:06;;;;;;;11.30;10.20;;;19.90;99.90;;;;;;5036355;28;20472;-68
2022/08/04 02:38:56;;;;;;;10.83;10.23;;;19.80;99.90;;;;;;5037730;28;20500;-67
2022/08/04 02:41:25;;;;;;;15.20;10.90;;;19.80;99.90;;;;;;5041122;28;20567;-67
2022/08/04 02:43:56;;;;;;;12.17;10.87;;;19.70;99.90;;;;;;5033988;28;20519;-66
2022/08/04 02:46:24;;;;;;;10.67;9.80;;;19.80;99.90;;;;;;5041719;28;21040;-67
2022/08/04 02:48:53;;;;;;;16.90;11.60;;;19.80;99.90;;;;;;5041711;28;20459;-67
2022/08/04 02:51:24;;;;;;;15.80;10.80;;;19.80;99.90;;;;;;5036160;28;20943;-67
2022/08/04 02:53:55;;;;;;;11.03;10.33;;;19.70;99.90;;;;;;5035534;28;20954;-68
2022/08/04 02:56:24;;;;;;;12.10;11.00;;;19.80;99.90;;;;;;5038405;28;20843;-67
2022/08/04 02:58:56;;;;;;;12.07;10.87;;;19.70;99.90;;;;;;5038849;28;20464;-67
2022/08/04 03:01:25;;;;;;;12.03;10.83;;;19.70;99.90;;;;;;5041357;28;20493;-67
2022/08/04 03:04:05;;;;;;;11.17;10.33;;;19.60;99.90;;;;;;5041139;28;21023;-67
2022/08/04 03:06:57;;;;;;;11.50;10.70;;;19.50;99.90;;;;;;5036963;28;20487;-66
2022/08/04 03:09:42;;;;;;;11.10;10.40;;;19.50;99.90;;;;;;5045208;28;20460;-68
2022/08/04 03:12:37;;;;;;;10.70;10.10;;;19.50;99.90;;;;;;5042241;28;20467;-68
2022/08/04 03:15:42;;;;;;;11.53;10.50;;;19.50;99.90;;;;;;5046578;28;20497;-67
2022/08/04 03:18:57;;;;;;;11.37;10.47;;;19.40;99.90;;;;;;5047089;28;20467;-67
2022/08/04 03:21:49;;;;;;;11.27;10.37;;;19.50;99.90;;;;;;5059814;28;20471;-68
2022/08/04 03:24:58;;;;;;;10.83;10.13;;;19.40;99.90;;;;;;5057565;28;20459;-68
2022/08/04 03:27:54;;;;;;;13.53;11.00;;;19.40;99.90;;;;;;5058109;28;20902;-67
2022/08/04 03:30:35;;;;;;;12.20;11.30;;;19.30;99.90;;;;;;5062278;28;20808;-67
2022/08/04 03:33:37;;;;;;;12.17;10.87;;;19.30;99.90;;;;;;5062476;28;20857;-67
2022/08/04 03:36:57;;;;;;;12.23;11.10;;;19.30;99.90;;;;;;5063889;28;20470;-66
2022/08/04 03:40:20;;;;;;;11.07;10.27;;;19.30;99.90;;;;;;5062625;28;20471;-67
2022/08/04 03:43:23;;;;;;;10.40;9.80;;;19.30;99.90;;;;;;5062685;28;20467;-67
2022/08/04 03:46:21;;;;;;;13.03;11.90;;;19.10;99.90;;;;;;5061668;28;20536;-67
2022/08/04 03:49:17;;;;;;;11.30;10.60;;;18.70;99.90;;;;;;5064791;28;20458;-68
2022/08/04 03:55:09;;;;;;;11.97;10.90;;;18.60;99.90;;;;;;5066843;28;20469;-67
2022/08/04 03:58:08;;;;;;;11.73;10.87;;;18.60;99.90;;;;;;5056844;28;20459;-67
2022/08/04 04:00:46;;;;;;;18.90;11.10;;;18.50;99.90;;;;;;5065784;28;20497;-68
2022/08/04 04:03:46;;;;;;;12.40;11.10;;;18.60;99.90;;;;;;5061705;28;20451;-67
2022/08/04 04:06:49;;;;;;;11.90;10.70;;;18.60;99.90;;;;;;5041137;28;20592;-67
2022/08/04 04:09:38;;;;;;;11.70;10.87;;;18.60;99.90;;;;;;5036239;28;20865;-68
2022/08/04 04:12:41;;;;;;;12.73;11.50;;;18.60;99.90;;;;;;5034594;28;20470;-68
2022/08/04 04:15:19;;;;;;;12.47;11.43;;;18.60;99.90;;;;;;4955641;28;20490;-68
2022/08/04 04:18:13;;;;;;;11.27;10.47;;;18.60;99.90;;;;;;5025131;28;20589;-68
2022/08/04 04:21:19;;;;;;;11.33;10.47;;;18.50;99.90;;;;;;5036644;28;20466;-67
2022/08/04 04:24:01;;;;;;;11.73;10.80;;;18.50;99.90;;;;;;5036127;28;20455;-67
2022/08/04 04:26:49;;;;;;;11.20;10.50;;;18.50;99.90;;;;;;5036121;28;20502;-68
2022/08/04 04:29:37;;;;;;;11.63;10.53;;;18.50;99.90;;;;;;5036136;28;20617;-67
2022/08/04 04:32:17;;;;;;;11.80;10.80;;;18.50;99.90;;;;;;5036516;28;20561;-66
2022/08/04 04:34:59;;;;;;;12.03;11.00;;;18.60;99.90;;;;;;5035522;28;21220;-67
2022/08/04 04:37:43;;;;;;;12.40;11.60;;;18.60;99.90;;;;;;5035876;28;20474;-67
2022/08/04 04:40:22;;;;;;;15.53;11.90;;;18.70;99.90;;;;;;5036025;28;20825;-67
2022/08/04 04:43:18;;;;;;;12.27;11.17;;;18.70;99.90;;;;;;5035901;28;20825;-68
2022/08/04 04:45:53;;;;;;;12.13;11.23;;;18.80;99.90;;;;;;5035886;28;20471;-67
2022/08/04 04:48:33;;;;;;;12.63;10.90;;;18.90;99.90;;;;;;5036469;28;20527;-68
2022/08/04 04:51:10;;;;;;;12.10;11.20;;;18.90;99.90;;;;;;5052687;28;20861;-66
2022/08/04 04:53:46;;;;;;;15.13;11.37;;;19.00;99.90;;;;;;5061077;28;20968;-67
2022/08/04 04:56:28;;;;;;;12.20;11.20;;;19.00;99.90;;;;;;5047099;28;20464;-67
2022/08/04 04:58:57;;;;;;;11.83;11.00;;;19.10;99.90;;;;;;5036552;28;20913;-67
2022/08/04 05:01:47;;;;;;;17.57;11.73;;;19.10;99.90;;;;;;5036218;28;20463;-67
2022/08/04 05:04:32;;;;;;;14.83;11.97;;;19.20;99.90;;;;;;5036068;28;21043;-67
2022/08/04 05:07:30;;;;;;;13.57;12.00;;;19.30;99.90;;;;;;5036212;28;20488;-67
2022/08/04 05:10:07;;;;;;;14.87;12.27;;;19.40;99.90;;;;;;5035474;28;20557;-68
2022/08/04 05:12:51;;;;;;;17.27;12.03;;;19.40;99.90;;;;;;5036499;28;21160;-68
2022/08/04 05:15:19;;;;;;;15.77;11.60;;;19.50;99.90;;;;;;5035301;28;20491;-68
2022/08/04 05:17:53;;;;;;;19.13;12.47;;;19.60;99.90;;;;;;5034982;28;20473;-67
2022/08/04 05:20:26;;;;;;;30.03;12.70;;;19.70;99.90;;;;;;5036583;28;20737;-67
2022/08/04 05:22:56;;;;;;;50.03;14.90;;;19.90;99.90;;;;;;5035636;28;20495;-67
2022/08/04 05:25:27;;;;;;;40.50;15.50;;;20.10;99.90;;;;;;5036553;28;20564;-67
2022/08/04 05:28:05;;;;;;;30.30;13.27;;;20.20;99.90;;;;;;5037131;28;20507;-67
2022/08/04 05:30:37;;;;;;;63.27;18.20;;;20.30;99.90;;;;;;5036086;28;20462;-68
2022/08/04 05:33:09;;;;;;;54.43;18.50;;;20.50;99.90;;;;;;5036368;28;20463;-68
2022/08/04 05:35:46;;;;;;;60.97;17.70;;;20.60;99.90;;;;;;5036367;28;20467;-67
2022/08/04 05:38:17;;;;;;;65.87;17.30;;;20.70;99.90;;;;;;5036283;28;20455;-68
2022/08/04 05:40:44;;;;;;;68.23;19.17;;;20.80;99.90;;;;;;5036144;28;20498;-68
2022/08/04 05:43:14;;;;;;;54.30;19.60;;;20.80;99.90;;;;;;5036785;28;20490;-67
2022/08/04 05:45:47;;;;;;;68.37;19.13;;;20.90;99.90;;;;;;5036654;28;20931;-68
2022/08/04 05:48:15;;;;;;;122.83;21.23;;;21.00;99.90;;;;;;5038820;28;20506;-67
2022/08/04 05:50:42;;;;;;;114.10;23.80;;;21.00;99.90;;;;;;5031954;28;20889;-68
2022/08/04 05:53:11;;;;;;;151.60;25.07;;;21.20;99.90;;;;;;5035102;28;20478;-68
2022/08/04 05:55:39;;;;;;;112.10;24.50;;;21.30;99.90;;;;;;5034445;28;20981;-68
2022/08/04 05:58:08;;;;;;;139.20;23.70;;;21.40;99.90;;;;;;5035058;28;21405;-67
2022/08/04 06:00:38;;;;;;;94.73;21.07;;;21.50;99.90;;;;;;5033717;28;21226;-67
2022/08/04 06:03:06;;;;;;;98.07;20.77;;;21.70;99.90;;;;;;5032418;28;21025;-67
2022/08/04 06:05:33;;;;;;;66.50;18.57;;;21.80;99.90;;;;;;5034230;28;20590;-67
2022/08/04 06:08:01;;;;;;;66.43;20.03;;;21.90;99.90;;;;;;5034269;28;20495;-67
2022/08/04 06:10:28;;;;;;;45.90;17.17;;;22.10;99.90;;;;;;5033987;28;20486;-67
2022/08/04 06:12:58;;;;;;;45.23;17.77;;;22.20;99.90;;;;;;5033102;28;20990;-68
2022/08/04 06:15:26;;;;;;;83.17;18.33;;;22.40;99.90;;;;;;5033476;28;20497;-67
2022/08/04 06:18:01;;;;;;;54.87;17.90;;;22.50;99.90;;;;;;5032737;28;21317;-68
2022/08/04 06:20:32;;;;;;;44.97;17.10;;;22.70;99.90;;;;;;5033724;28;20474;-68
2022/08/04 06:23:04;;;;;;;49.07;17.87;;;22.80;99.90;;;;;;5033188;28;20497;-68
2022/08/04 06:25:33;;;;;;;38.53;16.03;;;23.00;99.90;;;;;;5032457;28;20466;-67
2022/08/04 06:28:05;;;;;;;36.40;15.97;;;23.10;99.90;;;;;;5033573;28;20584;-68
2022/08/04 06:30:33;;;;;;;38.27;17.80;;;23.30;99.90;;;;;;5033539;28;20601;-67
2022/08/04 06:33:12;;;;;;;40.27;16.90;;;23.50;99.90;;;;;;5033128;28;20578;-68
2022/08/04 06:35:40;;;;;;;46.30;18.17;;;23.60;99.90;;;;;;5031831;28;20761;-67
2022/08/04 06:38:08;;;;;;;48.40;18.10;;;23.90;99.90;;;;;;5032159;28;20464;-68
2022/08/04 06:40:36;;;;;;;53.93;18.93;;;24.10;99.90;;;;;;5031635;28;20463;-68
2022/08/04 06:43:06;;;;;;;46.60;18.70;;;24.20;99.90;;;;;;5042153;28;20474;-67
2022/08/04 06:45:35;;;;;;;36.57;17.37;;;24.40;99.90;;;;;;5066141;28;20804;-67
2022/08/04 06:48:08;;;;;;;43.63;18.40;;;24.50;99.90;;;;;;5054243;28;20491;-68
2022/08/04 06:50:36;;;;;;;32.73;17.50;;;24.70;99.90;;;;;;5034254;28;20931;-68
2022/08/04 06:53:04;;;;;;;32.17;17.67;;;24.80;99.90;;;;;;5054297;28;20513;-68
2022/08/04 06:55:33;;;;;;;33.23;16.80;;;24.80;99.90;;;;;;5053483;28;20463;-68
2022/08/04 06:58:02;;;;;;;37.87;17.93;;;24.90;99.90;;;;;;5033820;28;20459;-68
2022/08/04 07:00:31;;;;;;;36.00;17.73;;;25.10;99.90;;;;;;5033244;28;20466;-69
2022/08/04 07:02:59;;;;;;;24.50;17.17;;;25.30;99.90;;;;;;5032014;28;20509;-68
2022/08/04 07:05:28;;;;;;;36.20;17.60;;;25.50;99.90;;;;;;5033396;28;20471;-69
2022/08/04 07:07:55;;;;;;;31.60;17.03;;;25.70;99.90;;;;;;5033056;28;20503;-68
2022/08/04 07:10:23;;;;;;;29.33;17.70;;;26.00;99.90;;;;;;5034011;28;20464;-68
2022/08/04 07:12:51;;;;;;;42.53;17.90;;;26.20;99.90;;;;;;5033400;28;20579;-68
2022/08/04 07:15:19;;;;;;;41.17;17.77;;;26.30;99.90;;;;;;5033153;28;21010;-68
2022/08/04 07:17:47;;;;;;;36.80;17.03;;;26.50;99.90;;;;;;5037701;28;20482;-68
2022/08/04 07:20:14;;;;;;;33.53;18.53;;;26.60;99.90;;;;;;5036739;28;21015;-68
2022/08/04 07:22:43;;;;;;;34.43;18.90;;;26.80;99.90;;;;;;5036717;28;20549;-67
2022/08/04 07:25:11;;;;;;;36.90;17.67;;;27.00;99.90;;;;;;5037260;28;20463;-69
2022/08/04 07:27:39;;;;;;;38.87;17.50;;;27.00;99.90;;;;;;5037442;28;20498;-68
2022/08/04 07:30:07;;;;;;;42.43;18.70;;;27.20;99.90;;;;;;5036640;28;20486;-68
2022/08/04 07:32:34;;;;;;;24.40;17.87;;;27.40;99.90;;;;;;5037797;28;20470;-68
2022/08/04 07:35:02;;;;;;;38.20;17.93;;;27.60;99.90;;;;;;5037427;28;21078;-67
2022/08/04 07:37:29;;;;;;;32.03;18.37;;;27.80;99.90;;;;;;5036731;28;21202;-69
2022/08/04 07:39:58;;;;;;;44.43;17.83;;;27.90;99.90;;;;;;5037390;28;20486;-69
2022/08/04 07:42:25;;;;;;;33.97;18.47;;;27.90;99.90;;;;;;5036192;28;20477;-69
2022/08/04 07:44:52;;;;;;;38.43;17.80;;;28.00;99.90;;;;;;5036875;28;20587;-68
2022/08/04 07:47:19;;;;;;;27.40;19.10;;;28.20;99.90;;;;;;5036604;28;20487;-68
2022/08/04 07:49:45;;;;;;;39.57;18.17;;;28.30;99.90;;;;;;5034369;28;20557;-69
2022/08/04 07:52:13;;;;;;;34.90;18.83;;;28.40;99.90;;;;;;5045320;28;20466;-68
2022/08/04 07:54:40;;;;;;;44.40;17.70;;;28.50;99.90;;;;;;5062652;28;20485;-69
2022/08/04 07:57:09;;;;;;;40.00;18.77;;;28.60;99.90;;;;;;5045656;28;20565;-67
2022/08/04 07:59:36;;;;;;;34.07;17.10;;;28.90;99.90;;;;;;5037961;28;20490;-69
2022/08/04 08:02:04;;;;;;;37.70;16.97;;;29.20;99.90;;;;;;5034212;28;21052;-68
2022/08/04 08:04:31;;;;;;;24.80;17.17;;;29.50;99.90;;;;;;5035812;28;20977;-68
2022/08/04 08:06:59;;;;;;;41.77;17.93;;;29.70;99.90;;;;;;5036461;28;20446;-68
2022/08/04 08:09:26;;;;;;;30.90;18.07;;;29.90;99.90;;;;;;5035286;28;20564;-69
2022/08/04 08:11:54;;;;;;;28.90;17.50;;;30.40;99.90;;;;;;5036849;28;21197;-69
2022/08/04 08:14:23;;;;;;;40.50;19.60;;;30.90;99.90;;;;;;5036487;28;20882;-69
2022/08/04 08:16:50;;;;;;;36.70;17.07;;;31.20;99.90;;;;;;5035616;28;21047;-69
2022/08/04 08:19:17;;;;;;;24.20;16.20;;;31.50;99.90;;;;;;5035270;28;20468;-69
2022/08/04 08:21:47;;;;;;;20.50;16.70;;;31.80;99.50;;;;;;5036205;28;20462;-69
2022/08/04 08:24:14;;;;;;;33.53;18.10;;;32.00;98.20;;;;;;5036671;28;21461;-68
2022/08/04 08:26:42;;;;;;;27.73;17.73;;;31.90;98.60;;;;;;5036234;28;20962;-68
2022/08/04 08:29:09;;;;;;;20.33;17.27;;;32.10;99.20;;;;;;5035328;28;20573;-69
2022/08/04 08:31:37;;;;;;;27.60;16.10;;;32.10;97.50;;;;;;5035801;28;20467;-68
2022/08/04 08:34:05;;;;;;;22.70;16.77;;;32.10;98.00;;;;;;5036099;28;21943;-69
2022/08/04 08:36:37;;;;;;;23.17;16.53;;;32.20;97.40;;;;;;5035612;28;20463;-69
2022/08/04 08:39:10;;;;;;;17.70;16.17;;;32.40;98.10;;;;;;5036332;28;20475;-69
2022/08/04 08:41:55;;;;;;;17.83;15.83;;;32.20;96.90;;;;;;5035825;28;20563;-69
2022/08/04 08:44:59;;;;;;;16.90;15.70;;;32.00;96.70;;;;;;5031902;28;20506;-69
2022/08/04 08:48:04;;;;;;;16.60;15.43;;;32.40;96.20;;;;;;5059596;28;20528;-67
2022/08/04 08:50:56;;;;;;;17.57;15.97;;;33.00;93.70;;;;;;5055146;28;20470;-68
2022/08/04 08:53:49;;;;;;;17.10;15.73;;;33.40;91.90;;;;;;5042697;28;20466;-69
2022/08/04 08:56:28;;;;;;;17.57;16.17;;;34.00;91.50;;;;;;5055276;28;20491;-69
2022/08/04 08:59:16;;;;;;;18.00;16.80;;;34.20;89.00;;;;;;5058229;28;20464;-68
2022/08/04 09:01:58;;;;;;;18.93;17.23;;;34.70;85.60;;;;;;5044839;28;20507;-69
2022/08/04 09:05:11;;;;;;;18.80;16.47;;;35.10;82.60;;;;;;5064187;28;20840;-69
2022/08/04 09:08:01;;;;;;;16.50;15.60;;;35.70;81.20;;;;;;5064689;28;20887;-69
2022/08/04 09:10:39;;;;;;;17.20;15.90;;;35.80;77.80;;;;;;5042477;28;20459;-69
2022/08/04 09:13:13;;;;;;;17.13;16.23;;;36.20;74.20;;;;;;5034993;28;20718;-68
2022/08/04 09:15:47;;;;;;;17.80;16.40;;;36.50;70.60;;;;;;5034525;28;20483;-68
2022/08/04 09:18:21;;;;;;;18.40;16.77;;;36.70;67.40;;;;;;5035595;28;20491;-69
2022/08/04 09:20:56;;;;;;;17.90;16.27;;;36.20;68.00;;;;;;5034712;28;20481;-69
2022/08/04 09:23:33;;;;;;;16.87;15.97;;;36.50;66.60;;;;;;5035072;28;21128;-68
2022/08/04 09:26:05;;;;;;;18.00;16.60;;;37.10;66.20;;;;;;5035077;28;20521;-68
2022/08/04 09:28:43;;;;;;;16.90;15.90;;;37.60;62.10;;;;;;5034656;28;20738;-70
2022/08/04 09:31:14;;;;;;;17.50;16.13;;;37.80;61.70;;;;;;5035063;28;20954;-68
2022/08/04 09:33:49;;;;;;;17.40;16.10;;;37.60;61.50;;;;;;5032612;28;20459;-69
2022/08/04 09:36:29;;;;;;;17.03;16.23;;;37.10;61.30;;;;;;5035042;28;20458;-68
2022/08/04 09:39:08;;;;;;;16.40;15.50;;;36.90;60.60;;;;;;5033767;28;20491;-68
2022/08/04 09:41:41;;;;;;;17.97;16.50;;;36.60;61.90;;;;;;5035528;28;20543;-69
2022/08/04 09:44:18;;;;;;;17.17;16.13;;;36.50;61.80;;;;;;5034958;28;22857;-69
2022/08/04 09:46:52;;;;;;;17.70;16.03;;;36.30;62.10;;;;;;5034882;28;20471;-69
2022/08/04 09:49:27;;;;;;;17.40;16.30;;;36.10;60.30;;;;;;5034950;28;20455;-69
2022/08/04 09:52:06;;;;;;;17.40;16.40;;;35.90;60.10;;;;;;5034332;28;20450;-69
2022/08/04 09:54:46;;;;;;;18.47;17.20;;;35.90;60.00;;;;;;5033729;28;21029;-69
2022/08/04 09:57:22;;;;;;;18.40;17.10;;;35.80;60.20;;;;;;5033877;28;20475;-70
2022/08/04 09:59:57;;;;;;;18.93;17.17;;;36.00;60.30;;;;;;5034875;28;20482;-70
2022/08/04 10:02:26;;;;;;;19.70;17.23;;;35.90;62.80;;;;;;5033428;28;20613;-69
2022/08/04 10:04:57;;;;;;;19.37;17.40;;;35.60;65.20;;;;;;5054118;28;20556;-68
2022/08/04 10:07:46;;;;;;;18.20;17.00;;;35.20;65.60;;;;;;5060517;28;20520;-69
2022/08/04 10:10:27;;;;;;;19.20;17.83;;;35.20;62.00;;;;;;5038915;28;20456;-68
2022/08/04 10:13:25;;;;;;;18.80;17.50;;;34.80;62.60;;;;;;5034909;28;20477;-68
2022/08/04 10:16:10;;;;;;;18.13;17.03;;;34.60;62.70;;;;;;5033833;28;20503;-69
2022/08/04 10:18:49;;;;;;;19.10;18.00;;;34.80;64.10;;;;;;5033256;28;20492;-68
2022/08/04 10:21:26;;;;;;;18.83;17.53;;;34.70;64.20;;;;;;5033686;28;20570;-69
2022/08/04 10:24:07;;;;;;;18.13;17.03;;;35.10;64.20;;;;;;5041043;28;20486;-69
2022/08/04 10:26:42;;;;;;;17.90;16.90;;;35.30;61.90;;;;;;5056130;28;20765;-68
2022/08/04 10:29:13;;;;;;;19.00;17.13;;;35.30;61.80;;;;;;5061633;28;20561;-69
2022/08/04 10:31:46;;;;;;;17.20;16.20;;;35.30;61.80;;;;;;5045573;28;21269;-69
2022/08/04 10:34:18;;;;;;;16.70;15.80;;;35.70;61.10;;;;;;5035687;28;20949;-69
2022/08/04 10:36:53;;;;;;;17.40;16.50;;;36.20;59.90;;;;;;5059126;28;20957;-69
2022/08/04 10:39:29;;;;;;;17.20;16.30;;;37.10;59.00;;;;;;5046064;28;20495;-70
2022/08/04 10:42:06;;;;;;;18.07;16.50;;;36.70;57.70;;;;;;5034225;28;20588;-70
2022/08/04 10:44:46;;;;;;;17.30;16.20;;;37.40;57.50;;;;;;5033810;28;21013;-70
2022/08/04 10:47:18;;;;;;;16.80;15.90;;;37.20;57.00;;;;;;5034663;28;20970;-69
2022/08/04 10:49:48;;;;;;;21.80;17.07;;;36.60;57.10;;;;;;5034395;28;21115;-69
2022/08/04 10:52:26;;;;;;;18.07;16.77;;;35.70;58.30;;;;;;5033337;28;20486;-68
2022/08/04 10:55:02;;;;;;;18.63;16.90;;;35.30;58.90;;;;;;5034039;28;21141;-69
2022/08/04 10:57:36;;;;;;;17.30;16.20;;;35.00;59.40;;;;;;5033668;28;21260;-68
2022/08/04 11:00:06;;;;;;;17.90;16.53;;;34.80;60.90;;;;;;5034251;28;20494;-68
2022/08/04 11:02:41;;;;;;;17.07;16.17;;;34.20;60.70;;;;;;5033674;28;20485;-69
2022/08/04 11:05:24;;;;;;;18.00;16.90;;;34.10;61.40;;;;;;5036097;28;20662;-68
2022/08/04 11:07:54;;;;;;;19.50;16.70;;;33.60;62.90;;;;;;5033486;28;20463;-68
2022/08/04 11:10:28;;;;;;;18.10;16.70;;;33.20;64.20;;;;;;5033463;28;20463;-69
2022/08/04 11:13:00;;;;;;;17.60;16.50;;;32.70;62.30;;;;;;5033297;28;20470;-67
2022/08/04 11:15:33;;;;;;;18.50;16.87;;;32.70;62.50;;;;;;5032891;28;20476;-68
2022/08/04 11:18:06;;;;;;;17.50;16.20;;;32.70;62.40;;;;;;5033395;28;21132;-69
2022/08/04 11:20:46;;;;;;;17.57;16.07;;;32.60;62.40;;;;;;5033087;28;20460;-68
2022/08/04 11:23:16;;;;;;;20.37;16.87;;;32.60;62.10;;;;;;5033403;28;20871;-68
2022/08/04 11:25:53;;;;;;;17.63;16.17;;;32.30;64.30;;;;;;5032952;28;21000;-68
2022/08/04 11:28:28;;;;;;;19.40;18.20;;;32.00;66.10;;;;;;5033492;28;20821;-69
2022/08/04 11:31:02;;;;;;;17.00;16.00;;;31.90;67.30;;;;;;5032655;28;20458;-69
2022/08/04 11:33:36;;;;;;;17.67;16.40;;;32.10;68.20;;;;;;5033118;28;20470;-68
2022/08/04 11:36:13;;;;;;;17.23;16.10;;;32.00;68.10;;;;;;5033298;28;20459;-68
2022/08/04 11:38:47;;;;;;;18.43;16.67;;;32.00;68.10;;;;;;5033817;28;20483;-68
2022/08/04 11:41:22;;;;;;;17.30;16.00;;;31.90;68.80;;;;;;5032912;28;20474;-68
2022/08/04 11:43:55;;;;;;;17.43;16.50;;;31.90;69.60;;;;;;5032713;28;20514;-68
2022/08/04 11:46:27;;;;;;;17.80;16.63;;;32.10;66.70;;;;;;5034056;28;20564;-69
2022/08/04 11:49:01;;;;;;;17.73;16.23;;;32.20;66.50;;;;;;5032833;28;20559;-68
2022/08/04 11:51:29;;;;;;;17.07;16.00;;;32.40;67.40;;;;;;5056904;28;20458;-68
2022/08/04 11:53:56;;;;;;;17.50;16.50;;;32.40;69.30;;;;;;5060646;28;20953;-68
2022/08/04 11:56:26;;;;;;;17.67;16.53;;;32.40;72.70;;;;;;5047189;28;20466;-68
2022/08/04 11:58:54;;;;;;;18.20;16.30;;;32.70;73.40;;;;;;5031993;28;20856;-68
2022/08/04 12:01:28;;;;;;;17.70;16.60;;;32.80;73.00;;;;;;5032679;28;20455;-68
2022/08/04 12:04:13;;;;;;;17.90;16.90;;;33.00;72.50;;;;;;5036761;28;20723;-67
2022/08/04 12:06:48;;;;;;;18.17;16.97;;;32.80;72.10;;;;;;5037123;28;20462;-68
2022/08/04 12:09:36;;;;;;;18.20;16.70;;;32.60;72.20;;;;;;5036205;28;21113;-68
2022/08/04 12:12:13;;;;;;;18.50;16.90;;;32.40;71.70;;;;;;5037114;28;20967;-69
2022/08/04 12:14:55;;;;;;;18.20;16.40;;;32.60;71.10;;;;;;5036373;28;20462;-68
2022/08/04 12:17:27;;;;;;;17.77;16.73;;;33.30;72.40;;;;;;5036587;28;20832;-68
2022/08/04 12:20:01;;;;;;;18.90;17.23;;;33.70;72.50;;;;;;5036736;28;20525;-69
2022/08/04 12:22:32;;;;;;;18.47;17.33;;;33.90;70.70;;;;;;5037081;28;20452;-67
2022/08/04 12:25:02;;;;;;;18.57;17.17;;;33.90;70.20;;;;;;5037736;28;20451;-68
2022/08/04 12:27:36;;;;;;;18.73;17.00;;;34.00;70.20;;;;;;5036547;28;20471;-69
2022/08/04 12:30:05;;;;;;;17.90;16.60;;;33.70;70.50;;;;;;5036611;28;20463;-68
2022/08/04 12:32:36;;;;;;;17.67;16.47;;;34.00;71.10;;;;;;5035765;28;20837;-68
2022/08/04 12:35:11;;;;;;;17.90;16.80;;;34.40;70.20;;;;;;5035791;28;20454;-69
2022/08/04 12:37:47;;;;;;;17.97;16.43;;;34.00;69.80;;;;;;5037172;28;20451;-68
2022/08/04 12:40:20;;;;;;;16.63;15.63;;;33.90;67.70;;;;;;5035951;28;20583;-69
2022/08/04 12:42:57;;;;;;;17.07;15.93;;;34.10;66.40;;;;;;5036222;28;20451;-68
2022/08/04 12:45:25;;;;;;;17.70;16.40;;;34.40;66.10;;;;;;5036214;28;20489;-68
2022/08/04 12:47:54;;;;;;;18.30;16.70;;;34.20;64.70;;;;;;5035548;28;20471;-68
2022/08/04 12:50:21;;;;;;;17.73;16.60;;;34.20;64.80;;;;;;5034150;28;20495;-68
2022/08/04 12:52:51;;;;;;;17.97;16.77;;;34.10;66.00;;;;;;5033805;28;20980;-68
2022/08/04 12:55:21;;;;;;;17.97;16.87;;;33.80;65.60;;;;;;5034755;28;20966;-68
2022/08/04 12:57:52;;;;;;;17.70;16.80;;;33.30;67.70;;;;;;5033976;28;20460;-68
2022/08/04 13:00:27;;;;;;;18.13;16.63;;;33.00;68.70;;;;;;5034667;28;20904;-69
2022/08/04 13:02:59;;;;;;;18.50;16.93;;;33.20;69.80;;;;;;5033361;28;20458;-69
2022/08/04 13:05:29;;;;;;;18.17;16.97;;;33.10;69.60;;;;;;5035737;28;20903;-69
2022/08/04 13:07:57;;;;;;;17.43;16.30;;;32.80;71.30;;;;;;5035334;28;22282;-69
2022/08/04 13:10:25;;;;;;;18.20;16.90;;;32.50;72.20;;;;;;5035661;28;20538;-69
2022/08/04 13:12:58;;;;;;;18.27;16.53;;;32.60;72.60;;;;;;5035237;28;20490;-69